Terminal Aerodrome Forecast
Issued by NWS Charleston, WV

Current Version | Previous Version | Graphics & Text | Print | Product List | Glossary On
Versions: 1 2 3 4 5 6 7 8 9 10 11 12 13 14 15 16 17 18 19 20 21 22 23 24 25 26 27 28
614
FTUS41 KRLX 230524
TAFHTS
TAF
KHTS 230524Z 2306/2406 05009KT P6SM OVC040
     FM230700 04009KT 4SM -RA OVC019
     FM230900 04010KT 3SM -RA OVC009
     FM231400 02011G18KT 4SM -RA OVC012
     FM231900 01008KT 3SM -RA OVC008
     FM240200 34007KT P6SM OVC007
     FM240500 33007KT P6SM OVC013=

USA.gov is the U.S. government's official web portal to all federal, state and local government web resources and services.